createdAt,value
2022-10-19T00:00:28.871Z,12.000000
2022-10-19T00:05:30.890Z,12.666667
2022-10-19T00:10:32.987Z,13.000000
2022-10-19T00:15:35.626Z,9.000000
2022-10-19T00:20:17.747Z,7.000000
2022-10-19T00:25:21.275Z,11.400000
2022-10-19T00:30:23.679Z,13.000000
2022-10-19T00:35:25.362Z,11.000000
2022-10-19T00:40:27.138Z,10.000000
2022-10-19T00:45:29.421Z,12.000000
2022-10-19T00:50:31.458Z,13.000000
2022-10-19T00:55:33.789Z,13.666667
2022-10-19T01:00:16.799Z,14.000000
2022-10-19T01:05:19.477Z,11.800000
2022-10-19T01:10:21.731Z,11.000000
2022-10-19T01:15:24.096Z,8.142857
2022-10-19T01:20:26.568Z,7.000000
2022-10-19T01:25:28.911Z,9.000000
2022-10-19T01:30:31.117Z,10.000000
2022-10-19T01:35:33.613Z,10.000000
2022-10-19T01:40:35.671Z,10.000000
2022-10-19T01:45:17.997Z,6.666667
2022-10-19T01:50:20.166Z,5.000000
2022-10-19T01:55:22.406Z,7.857143
2022-10-19T02:00:24.808Z,9.000000
2022-10-19T02:05:27.337Z,12.333333
2022-10-19T02:10:29.971Z,14.000000
2022-10-19T02:15:32.552Z,18.000000
2022-10-19T02:20:34.709Z,20.000000
2022-10-19T02:25:16.959Z,20.000000
2022-10-19T02:30:19.115Z,20.000000
2022-10-19T02:35:21.442Z,15.600000
2022-10-19T02:40:23.855Z,14.000000
2022-10-19T02:45:26.149Z,13.333333
2022-10-19T02:50:28.711Z,13.000000
2022-10-19T02:55:31.154Z,11.000000
2022-10-19T03:00:33.196Z,10.000000
2022-10-19T03:05:35.725Z,10.000000
2022-10-19T03:10:17.972Z,10.000000
2022-10-19T03:15:20.133Z,9.266667
2022-10-19T03:20:22.450Z,9.000000
2022-10-19T03:25:24.782Z,11.000000
2022-10-19T03:30:27.370Z,12.000000
2022-10-19T03:35:29.632Z,12.000000
2022-10-19T03:40:32.950Z,12.000000
2022-10-19T03:45:34.329Z,13.333333
2022-10-19T03:50:16.403Z,14.000000
2022-10-19T03:55:18.474Z,16.666667
2022-10-19T04:00:21.854Z,18.000000
2022-10-19T04:05:22.877Z,18.714286
2022-10-19T04:10:25.264Z,19.000000
2022-10-19T04:15:27.448Z,16.333333
2022-10-19T04:20:29.625Z,15.000000
2022-10-19T04:25:33.054Z,25.666667
2022-10-19T04:30:35.300Z,31.000000
2022-10-19T04:35:17.373Z,50.333333
2022-10-19T04:40:19.525Z,60.000000
2022-10-19T04:45:22.058Z,38.000000
2022-10-19T04:50:24.677Z,30.000000
2022-10-19T04:55:26.764Z,35.333333
2022-10-19T05:00:29.563Z,38.000000
2022-10-19T05:05:31.680Z,31.333333
2022-10-19T05:10:34.054Z,28.000000
2022-10-19T05:15:15.948Z,20.666667
2022-10-19T05:20:18.114Z,17.000000
2022-10-19T05:25:20.466Z,14.066667
2022-10-19T05:30:23.164Z,13.000000
2022-10-19T05:35:25.296Z,11.000000
2022-10-19T05:40:28.072Z,10.000000
2022-10-19T05:45:29.990Z,8.666667
2022-10-19T05:50:32.216Z,8.000000
2022-10-19T05:55:34.359Z,9.333333
2022-10-19T06:00:16.459Z,10.000000
2022-10-19T06:05:18.689Z,10.666667
2022-10-19T06:10:20.840Z,11.000000
2022-10-19T06:15:23.247Z,11.000000
2022-10-19T06:20:25.335Z,11.000000
2022-10-19T06:25:28.693Z,9.666667
2022-10-19T06:30:30.952Z,9.000000
2022-10-19T06:35:32.091Z,9.666667
2022-10-19T06:40:34.508Z,10.000000
2022-10-19T06:45:16.997Z,10.666667
2022-10-19T06:50:19.597Z,11.000000
2022-10-19T06:55:21.633Z,10.266667
2022-10-19T07:00:25.505Z,10.000000
2022-10-19T07:05:26.563Z,13.333333
2022-10-19T07:10:29.249Z,15.000000
2022-10-19T07:15:31.743Z,11.000000
2022-10-19T07:20:34.252Z,9.000000
2022-10-19T07:25:16.062Z,9.666667
2022-10-19T07:30:18.401Z,10.000000
2022-10-19T07:35:20.679Z,8.533333
2022-10-19T07:40:22.714Z,8.000000
2022-10-19T07:45:25.890Z,8.000000
2022-10-19T07:50:27.460Z,8.000000
2022-10-19T07:55:31.077Z,8.000000
2022-10-19T08:00:31.591Z,8.000000
2022-10-19T08:05:33.945Z,10.000000
2022-10-19T08:10:16.093Z,11.000000
2022-10-19T08:15:18.195Z,9.666667
2022-10-19T08:20:20.661Z,9.000000
2022-10-19T08:25:22.726Z,7.571429
2022-10-19T08:30:24.641Z,7.000000
2022-10-19T08:35:27.202Z,9.666667
2022-10-19T08:40:29.468Z,11.000000
2022-10-19T08:45:31.899Z,8.333333
2022-10-19T08:50:34.161Z,7.000000
2022-10-19T08:55:19.652Z,7.666667
2022-10-19T09:00:18.279Z,8.000000
2022-10-19T09:05:20.270Z,8.733333
2022-10-19T09:10:22.805Z,9.000000
2022-10-19T09:15:25.057Z,11.666667
2022-10-19T09:20:27.476Z,13.000000
2022-10-19T09:25:29.588Z,11.666667
2022-10-19T09:30:31.927Z,11.000000
2022-10-19T09:35:34.448Z,11.000000
2022-10-19T09:40:16.308Z,11.000000
2022-10-19T09:45:18.259Z,15.000000
2022-10-19T09:50:20.399Z,17.000000
2022-10-19T09:55:22.513Z,14.142857
2022-10-19T10:00:24.985Z,13.000000
2022-10-19T10:05:27.543Z,13.000000
2022-10-19T10:10:30.669Z,13.000000
2022-10-19T10:15:31.735Z,16.333333
2022-10-19T10:20:33.857Z,18.000000
2022-10-19T10:25:36.113Z,15.333333
2022-10-19T10:30:18.138Z,14.000000
2022-10-19T10:35:20.537Z,14.000000
2022-10-19T10:40:23.795Z,14.000000
2022-10-19T10:45:24.953Z,14.666667
2022-10-19T10:50:27.761Z,15.000000
2022-10-19T10:55:30.454Z,16.333333
2022-10-19T11:00:32.124Z,17.000000
2022-10-19T11:05:34.695Z,15.000000
2022-10-19T11:10:16.674Z,14.000000
2022-10-19T11:15:19.682Z,14.000000
2022-10-19T11:20:21.929Z,14.000000
2022-10-19T11:25:24.389Z,15.428571
2022-10-19T11:30:26.619Z,16.000000
2022-10-19T11:35:28.639Z,15.333333
2022-10-19T11:40:30.709Z,15.000000
2022-10-19T11:45:32.866Z,13.666667
2022-10-19T11:50:34.879Z,13.000000
2022-10-19T11:55:16.764Z,15.000000
2022-10-19T12:00:39.095Z,16.000000
2022-10-19T12:05:21.394Z,11.714286
2022-10-19T12:10:23.380Z,10.000000
2022-10-19T12:15:26.078Z,10.666667
2022-10-19T12:20:28.947Z,11.000000
2022-10-19T12:25:30.869Z,12.333333
2022-10-19T12:30:33.256Z,13.000000
2022-10-19T12:35:36.411Z,11.000000
2022-10-19T12:40:17.806Z,10.000000
2022-10-19T12:45:20.511Z,12.933333
2022-10-19T12:50:22.842Z,14.000000
2022-10-19T12:55:25.029Z,13.333333
2022-10-19T13:00:27.252Z,13.000000
2022-10-19T13:05:29.328Z,13.000000
2022-10-19T13:10:31.661Z,13.000000
2022-10-19T13:15:34.606Z,13.000000
2022-10-19T13:20:16.411Z,13.000000
2022-10-19T13:25:18.606Z,13.000000
2022-10-19T13:30:20.732Z,13.000000
2022-10-19T13:35:23.065Z,15.142857
2022-10-19T13:40:25.438Z,16.000000
2022-10-19T13:45:27.419Z,17.333333
2022-10-19T13:50:29.839Z,18.000000
2022-10-19T13:55:31.868Z,16.000000
2022-10-19T14:00:34.231Z,15.000000
2022-10-19T14:05:16.021Z,13.000000
2022-10-19T14:10:18.877Z,12.000000
2022-10-19T14:15:21.436Z,15.666667
2022-10-19T14:20:23.555Z,17.000000
2022-10-19T14:25:25.797Z,13.666667
2022-10-19T14:30:28.068Z,12.000000
2022-10-19T14:35:30.770Z,14.666667
2022-10-19T14:40:32.910Z,16.000000
2022-10-19T14:45:35.120Z,16.000000
2022-10-19T14:50:18.362Z,16.000000
2022-10-19T14:55:19.728Z,16.000000
2022-10-19T15:00:21.875Z,16.000000
2022-10-19T15:05:23.921Z,13.142857
2022-10-19T15:10:27.138Z,12.000000
2022-10-19T15:15:28.320Z,12.000000
2022-10-19T15:20:30.669Z,12.000000
2022-10-19T15:25:33.116Z,15.333333
2022-10-19T15:30:35.156Z,17.000000
2022-10-19T15:35:17.369Z,15.000000
2022-10-19T15:40:19.588Z,14.000000
2022-10-19T15:45:21.852Z,15.466667
2022-10-19T15:50:24.413Z,16.000000
2022-10-19T15:55:27.190Z,13.333333
2022-10-19T16:00:29.286Z,12.000000
2022-10-19T16:05:31.792Z,10.666667
2022-10-19T16:10:34.186Z,10.000000
2022-10-19T16:15:16.449Z,8.666667
2022-10-19T16:20:19.999Z,8.000000
2022-10-19T16:25:22.248Z,7.266667
2022-10-19T16:30:23.335Z,7.000000
2022-10-19T16:35:25.441Z,10.333333
2022-10-19T16:40:27.680Z,12.000000
2022-10-19T16:45:29.994Z,9.333333
2022-10-19T16:50:32.167Z,8.000000
2022-10-19T16:55:35.031Z,14.666667
2022-10-19T17:00:17.143Z,18.000000
2022-10-19T17:05:19.482Z,9.933333
2022-10-19T17:10:22.346Z,7.000000
2022-10-19T17:15:41.876Z,7.000000
2022-10-19T17:20:26.395Z,7.000000
2022-10-19T17:25:28.698Z,9.000000
2022-10-19T17:30:31.257Z,10.000000
2022-10-19T17:35:33.384Z,7.333333
2022-10-19T17:40:35.594Z,6.000000
2022-10-19T17:45:18.628Z,7.333333
2022-10-19T17:50:19.948Z,8.000000
2022-10-19T17:55:27.804Z,7.285714
2022-10-19T18:00:24.076Z,7.000000
2022-10-19T18:05:26.319Z,9.000000
2022-10-19T18:10:28.591Z,10.000000
2022-10-19T18:15:30.628Z,10.000000
2022-10-19T18:20:32.883Z,10.000000
2022-10-19T18:25:53.049Z,9.333333
2022-10-19T18:30:17.432Z,9.000000
2022-10-19T18:35:19.828Z,7.533333
2022-10-19T18:40:22.090Z,7.000000
2022-10-19T18:45:24.438Z,7.000000
2022-10-19T18:50:26.832Z,7.000000
2022-10-19T18:55:29.425Z,7.666667
2022-10-19T19:00:31.811Z,8.000000
2022-10-19T19:05:34.890Z,6.666667
2022-10-19T19:10:16.627Z,6.000000
2022-10-19T19:15:18.716Z,10.666667
2022-10-19T19:20:21.263Z,13.000000
2022-10-19T19:25:23.521Z,10.857143
2022-10-19T19:30:25.922Z,10.000000
2022-10-19T19:35:28.098Z,9.333333
2022-10-19T19:40:32.853Z,9.000000
2022-10-19T19:45:32.374Z,8.333333
2022-10-19T19:50:34.858Z,8.000000
2022-10-19T19:55:17.184Z,8.000000
2022-10-19T20:00:19.215Z,8.000000
2022-10-19T20:05:21.677Z,5.800000
2022-10-19T20:10:23.783Z,5.000000
2022-10-19T20:15:28.299Z,13.666667
2022-10-19T20:20:31.653Z,18.000000
2022-10-19T20:25:32.993Z,12.666667
2022-10-19T20:30:34.095Z,10.000000
2022-10-19T20:35:36.315Z,6.666667
2022-10-19T20:40:18.781Z,5.000000
2022-10-19T20:45:21.816Z,7.933333
2022-10-19T20:50:23.775Z,9.000000
2022-10-19T20:55:25.710Z,8.333333
2022-10-19T21:00:28.345Z,8.000000
2022-10-19T21:05:32.068Z,8.000000
2022-10-19T21:10:33.789Z,8.000000
2022-10-19T21:15:34.666Z,8.666667
2022-10-19T21:20:17.181Z,9.000000
2022-10-19T21:25:19.098Z,8.266667
2022-10-19T21:30:21.901Z,8.000000
2022-10-19T21:35:24.728Z,8.000000
2022-10-19T21:40:26.876Z,8.000000
2022-10-19T21:45:30.823Z,8.000000
2022-10-19T21:50:31.465Z,8.000000
2022-10-19T21:55:34.377Z,7.333333
2022-10-19T22:00:16.438Z,7.000000
2022-10-19T22:05:19.221Z,9.200000
2022-10-19T22:10:21.364Z,10.000000
2022-10-19T22:15:24.284Z,8.571429
2022-10-19T22:20:27.212Z,8.000000
2022-10-19T22:25:30.149Z,9.333333
2022-10-19T22:30:32.697Z,10.000000
2022-10-19T22:35:35.904Z,10.666667
2022-10-19T22:40:17.574Z,11.000000
2022-10-19T22:45:20.156Z,9.533333
2022-10-19T22:50:22.341Z,9.000000
2022-10-19T22:55:25.036Z,11.142857
2022-10-19T23:00:26.884Z,12.000000
2022-10-19T23:05:29.950Z,8.666667
2022-10-19T23:10:33.113Z,7.000000
2022-10-19T23:15:35.615Z,8.333333
2022-10-19T23:20:17.659Z,9.000000
2022-10-19T23:25:19.727Z,8.266667
2022-10-19T23:30:22.792Z,8.000000
2022-10-19T23:35:24.355Z,8.714286
2022-10-19T23:40:27.409Z,9.000000
2022-10-19T23:45:32.532Z,8.333333
2022-10-19T23:50:34.246Z,8.000000
2022-10-19T23:55:16.950Z,9.333333
